sensor_id;sensor_type;location;lat;lon;timestamp;pressure;altitude;pressure_sealevel;temperature;humidity
34921;BME280;21128;50.016;20.002;2023-05-12T00:01:19;99064.19;;;9.38;63.40
34921;BME280;21128;50.016;20.002;2023-05-12T00:03:47;99080.19;;;9.35;62.97
34921;BME280;21128;50.016;20.002;2023-05-12T00:06:14;99072.56;;;9.31;62.90
34921;BME280;21128;50.016;20.002;2023-05-12T00:08:41;99073.52;;;9.30;63.14
34921;BME280;21128;50.016;20.002;2023-05-12T00:11:08;99081.52;;;9.29;63.64
34921;BME280;21128;50.016;20.002;2023-05-12T00:13:35;99066.30;;;9.23;63.61
34921;BME280;21128;50.016;20.002;2023-05-12T00:16:02;99078.14;;;9.17;64.15
34921;BME280;21128;50.016;20.002;2023-05-12T00:18:29;99080.30;;;9.12;64.40
34921;BME280;21128;50.016;20.002;2023-05-12T00:20:56;99078.91;;;9.08;63.64
34921;BME280;21128;50.016;20.002;2023-05-12T00:23:24;99078.31;;;9.05;64.15
34921;BME280;21128;50.016;20.002;2023-05-12T00:25:51;99075.83;;;9.03;64.12
34921;BME280;21128;50.016;20.002;2023-05-12T00:28:19;99068.92;;;9.02;64.61
34921;BME280;21128;50.016;20.002;2023-05-12T00:30:46;99080.47;;;8.99;64.49
34921;BME280;21128;50.016;20.002;2023-05-12T00:33:13;99074.39;;;8.99;64.94
34921;BME280;21128;50.016;20.002;2023-05-12T00:35:42;99079.91;;;8.96;64.94
34921;BME280;21128;50.016;20.002;2023-05-12T00:38:12;99081.83;;;8.94;64.88
34921;BME280;21128;50.016;20.002;2023-05-12T00:40:39;99086.37;;;8.92;64.67
34921;BME280;21128;50.016;20.002;2023-05-12T00:43:06;99086.47;;;8.90;65.61
34921;BME280;21128;50.016;20.002;2023-05-12T00:45:34;99091.14;;;8.87;65.36
34921;BME280;21128;50.016;20.002;2023-05-12T00:48:03;99081.75;;;8.84;65.50
34921;BME280;21128;50.016;20.002;2023-05-12T00:50:30;99087.22;;;8.81;65.89
34921;BME280;21128;50.016;20.002;2023-05-12T00:52:59;99086.66;;;8.78;65.00
34921;BME280;21128;50.016;20.002;2023-05-12T00:55:28;99088.57;;;8.76;66.23
34921;BME280;21128;50.016;20.002;2023-05-12T00:57:56;99092.16;;;8.74;65.83
34921;BME280;21128;50.016;20.002;2023-05-12T01:00:24;99094.87;;;8.73;65.36
34921;BME280;21128;50.016;20.002;2023-05-12T01:02:51;99090.72;;;8.70;65.56
34921;BME280;21128;50.016;20.002;2023-05-12T01:05:18;99090.24;;;8.65;66.42
34921;BME280;21128;50.016;20.002;2023-05-12T01:07:45;99092.42;;;8.60;66.22
34921;BME280;21128;50.016;20.002;2023-05-12T01:10:19;99089.33;;;8.55;66.09
34921;BME280;21128;50.016;20.002;2023-05-12T01:12:47;99090.55;;;8.51;65.97
34921;BME280;21128;50.016;20.002;2023-05-12T01:15:14;99098.62;;;8.48;66.71
34921;BME280;21128;50.016;20.002;2023-05-12T01:17:46;99103.29;;;8.44;66.70
34921;BME280;21128;50.016;20.002;2023-05-12T01:20:17;99112.23;;;8.42;66.67
34921;BME280;21128;50.016;20.002;2023-05-12T01:22:45;99107.34;;;8.37;66.51
34921;BME280;21128;50.016;20.002;2023-05-12T01:25:13;99100.58;;;8.35;66.87
34921;BME280;21128;50.016;20.002;2023-05-12T01:27:41;99108.62;;;8.32;66.98
34921;BME280;21128;50.016;20.002;2023-05-12T01:30:11;99109.83;;;8.28;66.87
34921;BME280;21128;50.016;20.002;2023-05-12T01:32:39;99110.91;;;8.25;66.83
34921;BME280;21128;50.016;20.002;2023-05-12T01:35:06;99112.92;;;8.22;67.34
34921;BME280;21128;50.016;20.002;2023-05-12T01:37:33;99107.23;;;8.16;67.11
34921;BME280;21128;50.016;20.002;2023-05-12T01:40:01;99105.79;;;8.12;68.01
34921;BME280;21128;50.016;20.002;2023-05-12T01:42:28;99102.72;;;8.07;67.68
34921;BME280;21128;50.016;20.002;2023-05-12T01:44:55;99111.49;;;8.06;68.11
34921;BME280;21128;50.016;20.002;2023-05-12T01:47:22;99117.10;;;8.02;67.75
34921;BME280;21128;50.016;20.002;2023-05-12T01:49:49;99116.40;;;8.00;68.04
34921;BME280;21128;50.016;20.002;2023-05-12T01:52:16;99116.61;;;7.97;68.44
34921;BME280;21128;50.016;20.002;2023-05-12T01:54:43;99111.75;;;7.92;68.38
34921;BME280;21128;50.016;20.002;2023-05-12T01:57:10;99107.69;;;7.88;68.82
34921;BME280;21128;50.016;20.002;2023-05-12T01:59:38;99109.60;;;7.86;68.69
34921;BME280;21128;50.016;20.002;2023-05-12T02:02:05;99105.45;;;7.83;69.29
34921;BME280;21128;50.016;20.002;2023-05-12T02:04:32;99104.83;;;7.80;69.37
34921;BME280;21128;50.016;20.002;2023-05-12T02:07:00;99108.53;;;7.77;68.98
34921;BME280;21128;50.016;20.002;2023-05-12T02:09:27;99110.56;;;7.74;69.37
34921;BME280;21128;50.016;20.002;2023-05-12T02:11:54;99108.16;;;7.71;69.49
34921;BME280;21128;50.016;20.002;2023-05-12T02:14:21;99110.06;;;7.69;69.66
34921;BME280;21128;50.016;20.002;2023-05-12T02:16:48;99113.84;;;7.65;69.82
34921;BME280;21128;50.016;20.002;2023-05-12T02:19:18;99114.09;;;7.61;70.32
34921;BME280;21128;50.016;20.002;2023-05-12T02:21:47;99123.02;;;7.59;69.89
34921;BME280;21128;50.016;20.002;2023-05-12T02:24:14;99112.89;;;7.54;70.05
34921;BME280;21128;50.016;20.002;2023-05-12T02:26:42;99107.91;;;7.51;70.40
34921;BME280;21128;50.016;20.002;2023-05-12T02:29:09;99104.66;;;7.48;70.33
34921;BME280;21128;50.016;20.002;2023-05-12T02:31:39;99112.88;;;7.43;70.27
34921;BME280;21128;50.016;20.002;2023-05-12T02:34:06;99116.44;;;7.42;70.80
34921;BME280;21128;50.016;20.002;2023-05-12T02:36:33;99112.25;;;7.40;71.08
34921;BME280;21128;50.016;20.002;2023-05-12T02:39:00;99115.11;;;7.37;71.09
34921;BME280;21128;50.016;20.002;2023-05-12T02:41:27;99119.75;;;7.33;71.32
34921;BME280;21128;50.016;20.002;2023-05-12T02:43:54;99119.00;;;7.31;71.60
34921;BME280;21128;50.016;20.002;2023-05-12T02:46:21;99122.69;;;7.28;71.73
34921;BME280;21128;50.016;20.002;2023-05-12T02:48:48;99119.25;;;7.28;71.62
34921;BME280;21128;50.016;20.002;2023-05-12T02:51:14;99114.26;;;7.25;71.42
34921;BME280;21128;50.016;20.002;2023-05-12T02:53:41;99117.83;;;7.24;71.63
34921;BME280;21128;50.016;20.002;2023-05-12T02:56:08;99123.05;;;7.24;71.31
34921;BME280;21128;50.016;20.002;2023-05-12T02:58:35;99120.52;;;7.22;71.79
34921;BME280;21128;50.016;20.002;2023-05-12T03:01:02;99116.13;;;7.23;71.85
34921;BME280;21128;50.016;20.002;2023-05-12T03:03:29;99112.69;;;7.22;72.31
34921;BME280;21128;50.016;20.002;2023-05-12T03:05:56;99110.31;;;7.19;72.29
34921;BME280;21128;50.016;20.002;2023-05-12T03:08:23;99113.05;;;7.18;72.61
34921;BME280;21128;50.016;20.002;2023-05-12T03:10:50;99113.99;;;7.17;72.28
34921;BME280;21128;50.016;20.002;2023-05-12T03:13:17;99110.55;;;7.16;72.59
34921;BME280;21128;50.016;20.002;2023-05-12T03:15:44;99114.11;;;7.15;72.98
34921;BME280;21128;50.016;20.002;2023-05-12T03:18:11;99110.55;;;7.16;72.82
34921;BME280;21128;50.016;20.002;2023-05-12T03:20:38;99113.99;;;7.17;73.12
34921;BME280;21128;50.016;20.002;2023-05-12T03:23:05;99113.75;;;7.20;73.23
34921;BME280;21128;50.016;20.002;2023-05-12T03:25:32;99113.64;;;7.21;73.11
34921;BME280;21128;50.016;20.002;2023-05-12T03:28:01;99113.52;;;7.23;72.99
34921;BME280;21128;50.016;20.002;2023-05-12T03:30:29;99108.29;;;7.23;73.52
34921;BME280;21128;50.016;20.002;2023-05-12T03:32:56;99118.53;;;7.26;73.52
34921;BME280;21128;50.016;20.002;2023-05-12T03:35:23;99114.84;;;7.28;73.63
34921;BME280;21128;50.016;20.002;2023-05-12T03:37:50;99119.00;;;7.31;73.08
34921;BME280;21128;50.016;20.002;2023-05-12T03:40:17;99120.46;;;7.35;73.21
34921;BME280;21128;50.016;20.002;2023-05-12T03:42:44;99115.82;;;7.39;73.39
34921;BME280;21128;50.016;20.002;2023-05-12T03:45:11;99112.88;;;7.43;73.51
34921;BME280;21128;50.016;20.002;2023-05-12T03:47:38;99117.86;;;7.46;73.01
34921;BME280;21128;50.016;20.002;2023-05-12T03:50:06;99129.98;;;7.47;73.79
34921;BME280;21128;50.016;20.002;2023-05-12T03:52:33;99126.90;;;7.42;73.31
34921;BME280;21128;50.016;20.002;2023-05-12T03:55:04;99131.30;;;7.42;73.24
34921;BME280;21128;50.016;20.002;2023-05-12T03:57:32;99129.63;;;7.41;73.24
34921;BME280;21128;50.016;20.002;2023-05-12T04:00:03;99127.11;;;7.39;73.58
34921;BME280;21128;50.016;20.002;2023-05-12T04:02:31;99127.94;;;7.40;73.54
34921;BME280;21128;50.016;20.002;2023-05-12T04:04:58;99129.84;;;7.38;73.90
34921;BME280;21128;50.016;20.002;2023-05-12T04:07:25;99126.40;;;7.37;73.51
34921;BME280;21128;50.016;20.002;2023-05-12T04:09:52;99131.42;;;7.40;74.33
34921;BME280;21128;50.016;20.002;2023-05-12T04:12:18;99127.85;;;7.41;73.79
34921;BME280;21128;50.016;20.002;2023-05-12T04:14:46;99128.56;;;7.43;74.05
34921;BME280;21128;50.016;20.002;2023-05-12T04:17:14;99132.72;;;7.46;74.38
34921;BME280;21128;50.016;20.002;2023-05-12T04:19:41;99145.93;;;7.55;74.63
34921;BME280;21128;50.016;20.002;2023-05-12T04:22:08;99135.84;;;7.62;74.64
34921;BME280;21128;50.016;20.002;2023-05-12T04:24:36;99147.39;;;7.71;74.71
34921;BME280;21128;50.016;20.002;2023-05-12T04:27:05;99136.72;;;7.74;74.51
34921;BME280;21128;50.016;20.002;2023-05-12T04:29:32;99144.20;;;7.78;74.50
34921;BME280;21128;50.016;20.002;2023-05-12T04:31:59;99141.13;;;7.84;73.87
34921;BME280;21128;50.016;20.002;2023-05-12T04:34:26;99142.78;;;7.97;74.96
34921;BME280;21128;50.016;20.002;2023-05-12T04:36:53;99135.79;;;8.08;74.42
34921;BME280;21128;50.016;20.002;2023-05-12T04:39:20;99149.11;;;8.16;74.29
34921;BME280;21128;50.016;20.002;2023-05-12T04:41:48;99144.92;;;8.14;74.19
34921;BME280;21128;50.016;20.002;2023-05-12T04:44:15;99142.69;;;8.09;74.52
34921;BME280;21128;50.016;20.002;2023-05-12T04:46:41;99146.01;;;8.11;74.12
34921;BME280;21128;50.016;20.002;2023-05-12T04:49:09;99140.28;;;8.06;73.98
34921;BME280;21128;50.016;20.002;2023-05-12T04:51:37;99142.90;;;8.06;74.00
34921;BME280;21128;50.016;20.002;2023-05-12T04:54:09;99144.58;;;8.18;74.15
34921;BME280;21128;50.016;20.002;2023-05-12T04:56:36;99151.61;;;8.18;73.78
34921;BME280;21128;50.016;20.002;2023-05-12T04:59:03;99147.42;;;8.15;74.12
34921;BME280;21128;50.016;20.002;2023-05-12T05:01:30;99152.91;;;8.12;73.62
34921;BME280;21128;50.016;20.002;2023-05-12T05:03:57;99161.36;;;8.27;73.80
34921;BME280;21128;50.016;20.002;2023-05-12T05:06:24;99166.02;;;8.46;74.17
34921;BME280;21128;50.016;20.002;2023-05-12T05:08:51;99156.82;;;8.63;73.84
34921;BME280;21128;50.016;20.002;2023-05-12T05:11:18;99158.35;;;8.77;73.87
34921;BME280;21128;50.016;20.002;2023-05-12T05:13:47;99161.15;;;8.96;73.93
34921;BME280;21128;50.016;20.002;2023-05-12T05:16:14;99166.33;;;9.18;73.93
34921;BME280;21128;50.016;20.002;2023-05-12T05:18:41;99169.28;;;9.25;72.65
34921;BME280;21128;50.016;20.002;2023-05-12T05:21:12;99163.57;;;9.20;73.06
34921;BME280;21128;50.016;20.002;2023-05-12T05:23:42;99169.70;;;9.09;72.89
34921;BME280;21128;50.016;20.002;2023-05-12T05:26:09;99161.00;;;9.09;72.57
34921;BME280;21128;50.016;20.002;2023-05-12T05:28:36;99164.14;;;9.23;73.17
34921;BME280;21128;50.016;20.002;2023-05-12T05:31:05;99169.09;;;9.38;73.34
34921;BME280;21128;50.016;20.002;2023-05-12T05:33:33;99176.00;;;9.39;72.37
34921;BME280;21128;50.016;20.002;2023-05-12T05:36:00;99173.17;;;9.30;72.37
34921;BME280;21128;50.016;20.002;2023-05-12T05:38:27;99171.17;;;9.23;72.33
34921;BME280;21128;50.016;20.002;2023-05-12T05:40:54;99176.06;;;9.27;73.08
34921;BME280;21128;50.016;20.002;2023-05-12T05:43:22;99178.49;;;9.40;72.90
34921;BME280;21128;50.016;20.002;2023-05-12T05:45:49;99173.02;;;9.43;73.41
34921;BME280;21128;50.016;20.002;2023-05-12T05:48:18;99172.28;;;9.41;73.54
34921;BME280;21128;50.016;20.002;2023-05-12T05:50:45;99181.11;;;9.40;73.36
34921;BME280;21128;50.016;20.002;2023-05-12T05:53:12;99182.91;;;9.40;73.60
34921;BME280;21128;50.016;20.002;2023-05-12T05:55:47;99188.75;;;9.43;74.41
34921;BME280;21128;50.016;20.002;2023-05-12T05:58:14;99187.48;;;9.58;74.61
34921;BME280;21128;50.016;20.002;2023-05-12T06:00:42;99188.70;;;9.75;74.96
34921;BME280;21128;50.016;20.002;2023-05-12T06:03:09;99195.35;;;9.79;73.31
34921;BME280;21128;50.016;20.002;2023-05-12T06:05:37;99190.66;;;9.83;73.42
34921;BME280;21128;50.016;20.002;2023-05-12T06:08:04;99190.02;;;9.91;73.87
34921;BME280;21128;50.016;20.002;2023-05-12T06:10:34;99181.82;;;10.05;73.46
34921;BME280;21128;50.016;20.002;2023-05-12T06:13:01;99183.66;;;10.14;73.41
34921;BME280;21128;50.016;20.002;2023-05-12T06:15:28;99176.23;;;10.19;73.23
34921;BME280;21128;50.016;20.002;2023-05-12T06:17:55;99183.59;;;10.25;72.95
34921;BME280;21128;50.016;20.002;2023-05-12T06:20:22;99183.25;;;10.39;73.27
34921;BME280;21128;50.016;20.002;2023-05-12T06:22:48;99183.45;;;10.57;73.31
34921;BME280;21128;50.016;20.002;2023-05-12T06:25:15;99188.48;;;10.70;72.59
34921;BME280;21128;50.016;20.002;2023-05-12T06:27:42;99177.30;;;10.78;72.46
34921;BME280;21128;50.016;20.002;2023-05-12T06:30:10;99174.30;;;11.02;72.32
34921;BME280;21128;50.016;20.002;2023-05-12T06:32:37;99176.25;;;11.19;71.68
34921;BME280;21128;50.016;20.002;2023-05-12T06:35:05;99187.86;;;11.26;70.97
34921;BME280;21128;50.016;20.002;2023-05-12T06:37:32;99183.16;;;11.39;70.83
34921;BME280;21128;50.016;20.002;2023-05-12T06:39:59;99178.70;;;11.59;70.84
34921;BME280;21128;50.016;20.002;2023-05-12T06:42:26;99180.38;;;11.70;70.25
34921;BME280;21128;50.016;20.002;2023-05-12T06:44:53;99176.49;;;11.83;69.77
34921;BME280;21128;50.016;20.002;2023-05-12T06:47:20;99177.56;;;12.00;70.30
34921;BME280;21128;50.016;20.002;2023-05-12T06:49:47;99173.77;;;12.22;69.45
34921;BME280;21128;50.016;20.002;2023-05-12T06:52:15;99177.74;;;12.36;69.21
34921;BME280;21128;50.016;20.002;2023-05-12T06:54:42;99183.48;;;12.49;68.09
34921;BME280;21128;50.016;20.002;2023-05-12T06:57:09;99174.53;;;12.70;68.80
34921;BME280;21128;50.016;20.002;2023-05-12T06:59:36;99177.41;;;12.94;68.30
34921;BME280;21128;50.016;20.002;2023-05-12T07:02:04;99182.18;;;13.08;66.29
34921;BME280;21128;50.016;20.002;2023-05-12T07:04:31;99171.78;;;13.07;64.67
34921;BME280;21128;50.016;20.002;2023-05-12T07:06:57;99177.66;;;13.18;65.43
34921;BME280;21128;50.016;20.002;2023-05-12T07:09:24;99184.10;;;13.34;65.56
34921;BME280;21128;50.016;20.002;2023-05-12T07:11:51;99176.39;;;13.58;65.87
34921;BME280;21128;50.016;20.002;2023-05-12T07:14:18;99176.91;;;13.79;64.44
34921;BME280;21128;50.016;20.002;2023-05-12T07:16:45;99169.99;;;13.87;63.79
34921;BME280;21128;50.016;20.002;2023-05-12T07:19:12;99169.91;;;13.96;63.56
34921;BME280;21128;50.016;20.002;2023-05-12T07:21:39;99179.73;;;14.12;62.95
34921;BME280;21128;50.016;20.002;2023-05-12T07:24:06;99169.58;;;14.25;62.00
34921;BME280;21128;50.016;20.002;2023-05-12T07:26:33;99175.94;;;14.41;62.46
34921;BME280;21128;50.016;20.002;2023-05-12T07:29:00;99179.51;;;14.57;61.39
34921;BME280;21128;50.016;20.002;2023-05-12T07:31:28;99171.94;;;14.71;61.71
34921;BME280;21128;50.016;20.002;2023-05-12T07:33:55;99176.78;;;14.83;60.16
34921;BME280;21128;50.016;20.002;2023-05-12T07:36:22;99170.05;;;14.97;59.87
34921;BME280;21128;50.016;20.002;2023-05-12T07:38:49;99170.91;;;15.14;58.84
34921;BME280;21128;50.016;20.002;2023-05-12T07:41:16;99172.25;;;15.34;58.51
34921;BME280;21128;50.016;20.002;2023-05-12T07:43:44;99181.03;;;15.51;56.98
34921;BME280;21128;50.016;20.002;2023-05-12T07:46:11;99172.61;;;15.56;56.35
34921;BME280;21128;50.016;20.002;2023-05-12T07:48:38;99169.64;;;15.67;55.15
34921;BME280;21128;50.016;20.002;2023-05-12T07:51:06;99174.11;;;15.83;55.60
34921;BME280;21128;50.016;20.002;2023-05-12T07:53:33;99167.26;;;16.04;56.28
34921;BME280;21128;50.016;20.002;2023-05-12T07:56:01;99167.20;;;16.29;55.62
34921;BME280;21128;50.016;20.002;2023-05-12T07:58:28;99163.17;;;16.49;53.83
34921;BME280;21128;50.016;20.002;2023-05-12T08:00:55;99169.09;;;16.59;54.65
34921;BME280;21128;50.016;20.002;2023-05-12T08:03:25;99172.52;;;16.76;53.89
34921;BME280;21128;50.016;20.002;2023-05-12T08:05:52;99168.78;;;16.94;52.53
34921;BME280;21128;50.016;20.002;2023-05-12T08:08:19;99168.87;;;17.08;51.62
34921;BME280;21128;50.016;20.002;2023-05-12T08:10:46;99158.20;;;17.16;51.24
34921;BME280;21128;50.016;20.002;2023-05-12T08:13:12;99165.44;;;17.23;50.48
34921;BME280;21128;50.016;20.002;2023-05-12T08:15:40;99161.71;;;17.32;50.58
34921;BME280;21128;50.016;20.002;2023-05-12T08:18:06;99157.84;;;17.42;48.58
34921;BME280;21128;50.016;20.002;2023-05-12T08:20:33;99161.50;;;17.41;46.95
34921;BME280;21128;50.016;20.002;2023-05-12T08:23:01;99162.20;;;17.35;48.10
34921;BME280;21128;50.016;20.002;2023-05-12T08:25:28;99159.42;;;17.52;48.33
34921;BME280;21128;50.016;20.002;2023-05-12T08:27:56;99165.08;;;17.71;48.92
34921;BME280;21128;50.016;20.002;2023-05-12T08:30:26;99153.02;;;17.98;48.88
34921;BME280;21128;50.016;20.002;2023-05-12T08:32:54;99156.91;;;18.25;48.76
34921;BME280;21128;50.016;20.002;2023-05-12T08:35:25;99148.65;;;18.50;48.03
34921;BME280;21128;50.016;20.002;2023-05-12T08:37:52;99154.67;;;18.73;47.68
34921;BME280;21128;50.016;20.002;2023-05-12T08:40:21;99159.54;;;18.84;46.52
34921;BME280;21128;50.016;20.002;2023-05-12T08:45:35;99161.74;;;19.17;45.67
34921;BME280;21128;50.016;20.002;2023-05-12T08:48:05;99164.98;;;19.34;45.90
34921;BME280;21128;50.016;20.002;2023-05-12T08:50:37;99166.17;;;19.53;44.73
34921;BME280;21128;50.016;20.002;2023-05-12T08:53:10;99162.62;;;19.67;44.13
34921;BME280;21128;50.016;20.002;2023-05-12T08:55:40;99168.83;;;19.74;43.37
34921;BME280;21128;50.016;20.002;2023-05-12T08:58:08;99167.78;;;19.96;44.32
34921;BME280;21128;50.016;20.002;2023-05-12T09:00:37;99166.11;;;20.23;43.50
34921;BME280;21128;50.016;20.002;2023-05-12T09:03:05;99152.03;;;20.36;41.71
34921;BME280;21128;50.016;20.002;2023-05-12T09:05:33;99169.28;;;20.40;41.58
34921;BME280;21128;50.016;20.002;2023-05-12T09:08:00;99160.73;;;20.45;40.48
34921;BME280;21128;50.016;20.002;2023-05-12T09:10:28;99165.66;;;20.48;39.95
34921;BME280;21128;50.016;20.002;2023-05-12T09:13:03;99168.58;;;20.53;39.34
34921;BME280;21128;50.016;20.002;2023-05-12T09:15:34;99168.82;;;20.65;38.74
34921;BME280;21128;50.016;20.002;2023-05-12T09:18:02;99166.39;;;20.76;39.36
34921;BME280;21128;50.016;20.002;2023-05-12T09:20:29;99159.70;;;20.94;38.80
34921;BME280;21128;50.016;20.002;2023-05-12T09:22:56;99156.22;;;21.06;37.84
34921;BME280;21128;50.016;20.002;2023-05-12T09:25:23;99160.75;;;21.06;36.34
34921;BME280;21128;50.016;20.002;2023-05-12T09:27:54;99160.16;;;21.11;37.69
34921;BME280;21128;50.016;20.002;2023-05-12T09:30:29;99169.89;;;21.38;37.79
34921;BME280;21128;50.016;20.002;2023-05-12T09:33:12;99162.52;;;21.53;36.76
34921;BME280;21128;50.016;20.002;2023-05-12T09:35:44;99159.64;;;21.61;36.64
34921;BME280;21128;50.016;20.002;2023-05-12T09:38:13;99155.09;;;21.69;35.92
34921;BME280;21128;50.016;20.002;2023-05-12T09:40:40;99164.77;;;21.83;35.77
34921;BME280;21128;50.016;20.002;2023-05-12T09:43:08;99149.53;;;21.90;35.13
34921;BME280;21128;50.016;20.002;2023-05-12T09:45:37;99144.18;;;22.03;36.00
34921;BME280;21128;50.016;20.002;2023-05-12T09:48:10;99155.91;;;22.15;35.65
34921;BME280;21128;50.016;20.002;2023-05-12T09:50:48;99149.10;;;22.06;34.20
34921;BME280;21128;50.016;20.002;2023-05-12T09:53:17;99153.20;;;22.02;35.77
34921;BME280;21128;50.016;20.002;2023-05-12T09:55:46;99148.30;;;22.12;35.36
34921;BME280;21128;50.016;20.002;2023-05-12T09:58:16;99138.00;;;22.09;34.13
34921;BME280;21128;50.016;20.002;2023-05-12T10:00:43;99151.59;;;22.14;35.43
34921;BME280;21128;50.016;20.002;2023-05-12T10:03:16;99141.47;;;22.30;35.53
34921;BME280;21128;50.016;20.002;2023-05-12T10:05:48;99133.01;;;22.33;34.31
34921;BME280;21128;50.016;20.002;2023-05-12T10:08:24;99135.09;;;22.24;33.12
34921;BME280;21128;50.016;20.002;2023-05-12T10:10:54;99148.30;;;22.12;33.50
34921;BME280;21128;50.016;20.002;2023-05-12T10:13:23;99140.47;;;22.04;32.60
34921;BME280;21128;50.016;20.002;2023-05-12T10:15:51;99150.34;;;22.17;33.45
34921;BME280;21128;50.016;20.002;2023-05-12T10:18:21;99136.12;;;22.30;32.42
34921;BME280;21128;50.016;20.002;2023-05-12T10:20:51;99136.35;;;22.15;31.79
34921;BME280;21128;50.016;20.002;2023-05-12T10:23:19;99145.22;;;21.89;32.83
34921;BME280;21128;50.016;20.002;2023-05-12T10:25:47;99146.25;;;21.75;33.00
34921;BME280;21128;50.016;20.002;2023-05-12T10:28:15;99143.78;;;21.67;31.82
34921;BME280;21128;50.016;20.002;2023-05-12T10:30:44;99132.27;;;21.73;31.68
34921;BME280;21128;50.016;20.002;2023-05-12T10:33:12;99148.33;;;21.53;31.78
34921;BME280;21128;50.016;20.002;2023-05-12T10:35:41;99140.07;;;21.41;32.02
34921;BME280;21128;50.016;20.002;2023-05-12T10:38:10;99146.03;;;21.43;31.74
34921;BME280;21128;50.016;20.002;2023-05-12T10:43:25;99140.26;;;21.99;32.43
34921;BME280;21128;50.016;20.002;2023-05-12T10:46:23;99132.42;;;22.17;31.84
34921;BME280;21128;50.016;20.002;2023-05-12T10:49:09;99133.84;;;22.27;32.60
34921;BME280;21128;50.016;20.002;2023-05-12T10:54:11;99129.34;;;22.79;31.00
34921;BME280;21128;50.016;20.002;2023-05-12T10:59:18;99127.88;;;22.25;30.50
34921;BME280;21128;50.016;20.002;2023-05-12T11:07:03;99139.02;;;22.80;30.32
34921;BME280;21128;50.016;20.002;2023-05-12T11:09:34;99130.08;;;22.99;29.90
34921;BME280;21128;50.016;20.002;2023-05-12T11:12:01;99138.05;;;23.12;30.60
34921;BME280;21128;50.016;20.002;2023-05-12T11:14:30;99130.34;;;23.22;29.96
34921;BME280;21128;50.016;20.002;2023-05-12T11:16:57;99130.52;;;22.96;30.37
34921;BME280;21128;50.016;20.002;2023-05-12T11:19:23;99134.14;;;22.63;30.95
34921;BME280;21128;50.016;20.002;2023-05-12T11:21:51;99132.50;;;22.62;30.66
34921;BME280;21128;50.016;20.002;2023-05-12T11:24:19;99130.08;;;22.47;30.86
34921;BME280;21128;50.016;20.002;2023-05-12T11:26:46;99142.92;;;22.19;31.53
34921;BME280;21128;50.016;20.002;2023-05-12T11:29:18;99136.38;;;21.88;30.71
34921;BME280;21128;50.016;20.002;2023-05-12T11:31:47;99136.38;;;21.88;31.62
34921;BME280;21128;50.016;20.002;2023-05-12T11:34:14;99132.86;;;22.14;32.33
34921;BME280;21128;50.016;20.002;2023-05-12T11:36:43;99135.09;;;22.24;31.67
34921;BME280;21128;50.016;20.002;2023-05-12T11:39:18;99135.92;;;22.18;32.69
34921;BME280;21128;50.016;20.002;2023-05-12T11:41:49;99127.28;;;22.23;32.15
34921;BME280;21128;50.016;20.002;2023-05-12T11:44:21;99139.22;;;22.00;32.14
34921;BME280;21128;50.016;20.002;2023-05-12T11:49:32;99146.17;;;21.15;31.46
34921;BME280;21128;50.016;20.002;2023-05-12T11:52:01;99135.20;;;20.77;31.76
34921;BME280;21128;50.016;20.002;2023-05-12T11:54:29;99145.23;;;20.68;31.67
34921;BME280;21128;50.016;20.002;2023-05-12T11:56:57;99140.74;;;20.41;32.11
34921;BME280;21128;50.016;20.002;2023-05-12T11:59:25;99134.52;;;20.62;32.13
34921;BME280;21128;50.016;20.002;2023-05-12T12:01:53;99141.25;;;21.12;32.34
34921;BME280;21128;50.016;20.002;2023-05-12T12:04:33;99139.47;;;21.66;31.37
34921;BME280;21128;50.016;20.002;2023-05-12T12:07:02;99129.58;;;22.12;32.21
34921;BME280;21128;50.016;20.002;2023-05-12T12:09:36;99128.23;;;22.48;30.24
34921;BME280;21128;50.016;20.002;2023-05-12T12:12:04;99133.08;;;22.71;31.26
34921;BME280;21128;50.016;20.002;2023-05-12T12:14:33;99131.08;;;23.05;29.72
34921;BME280;21128;50.016;20.002;2023-05-12T12:17:01;99119.72;;;22.64;30.60
34921;BME280;21128;50.016;20.002;2023-05-12T12:19:28;99139.04;;;22.08;31.10
34921;BME280;21128;50.016;20.002;2023-05-12T12:21:56;99123.41;;;21.52;32.10
34921;BME280;21128;50.016;20.002;2023-05-12T12:24:24;99138.38;;;21.20;32.32
34921;BME280;21128;50.016;20.002;2023-05-12T12:26:51;99132.22;;;21.20;33.57
34921;BME280;21128;50.016;20.002;2023-05-12T12:29:18;99127.32;;;21.30;33.17
34921;BME280;21128;50.016;20.002;2023-05-12T12:31:45;99130.55;;;21.19;33.15
34921;BME280;21128;50.016;20.002;2023-05-12T12:34:12;99132.80;;;21.08;34.24
34921;BME280;21128;50.016;20.002;2023-05-12T12:36:39;99143.27;;;21.10;33.66
34921;BME280;21128;50.016;20.002;2023-05-12T12:39:07;99137.14;;;21.23;33.54
34921;BME280;21128;50.016;20.002;2023-05-12T12:41:34;99135.36;;;21.63;33.67
34921;BME280;21128;50.016;20.002;2023-05-12T12:44:01;99144.60;;;21.67;33.98
34921;BME280;21128;50.016;20.002;2023-05-12T12:46:28;99144.61;;;21.47;33.24
34921;BME280;21128;50.016;20.002;2023-05-12T12:48:55;99130.00;;;21.30;33.04
34921;BME280;21128;50.016;20.002;2023-05-12T12:51:24;99139.19;;;21.14;32.89
34921;BME280;21128;50.016;20.002;2023-05-12T12:53:52;99137.87;;;20.77;33.25
34921;BME280;21128;50.016;20.002;2023-05-12T12:56:19;99129.39;;;20.67;33.36
34921;BME280;21128;50.016;20.002;2023-05-12T12:58:47;99130.03;;;20.69;34.40
34921;BME280;21128;50.016;20.002;2023-05-12T13:01:14;99122.73;;;21.17;34.00
34921;BME280;21128;50.016;20.002;2023-05-12T13:03:41;99128.37;;;21.55;33.38
34921;BME280;21128;50.016;20.002;2023-05-12T13:06:08;99125.67;;;21.82;32.49
34921;BME280;21128;50.016;20.002;2023-05-12T13:08:35;99132.66;;;21.83;33.28
34921;BME280;21128;50.016;20.002;2023-05-12T13:11:02;99113.09;;;22.09;33.04
34921;BME280;21128;50.016;20.002;2023-05-12T13:13:29;99112.41;;;22.33;32.69
34921;BME280;21128;50.016;20.002;2023-05-12T13:15:56;99120.62;;;22.45;32.14
34921;BME280;21128;50.016;20.002;2023-05-12T13:18:23;99116.95;;;22.33;32.00